createdAt,value
2022-07-29T00:01:53.482Z,44.79
2022-07-29T00:04:21.496Z,44.70
2022-07-29T00:06:48.576Z,44.70
2022-07-29T00:09:15.239Z,44.83
2022-07-29T00:11:41.961Z,44.75
2022-07-29T00:14:09.101Z,44.85
2022-07-29T00:16:36.538Z,44.90
2022-07-29T00:19:03.480Z,44.81
2022-07-29T00:21:30.569Z,44.91
2022-07-29T00:23:57.273Z,44.98
2022-07-29T00:26:23.942Z,44.98
2022-07-29T00:28:50.532Z,44.93
2022-07-29T00:31:17.237Z,45.06
2022-07-29T00:33:43.888Z,45.12
2022-07-29T00:36:10.564Z,45.23
2022-07-29T00:38:37.124Z,45.18
2022-07-29T00:41:03.756Z,45.26
2022-07-29T00:43:30.402Z,45.39
2022-07-29T00:45:57.005Z,45.29
2022-07-29T00:48:23.670Z,45.24
2022-07-29T00:50:51.073Z,45.27
2022-07-29T00:53:17.921Z,45.43
2022-07-29T00:55:44.641Z,45.42
2022-07-29T00:58:14.217Z,45.36
2022-07-29T01:00:41.865Z,45.51
2022-07-29T01:03:09.240Z,45.58
2022-07-29T01:05:50.994Z,45.64
2022-07-29T01:08:19.356Z,45.54
2022-07-29T01:10:48.099Z,45.59
2022-07-29T01:13:17.060Z,45.59
2022-07-29T01:15:53.438Z,45.63
2022-07-29T01:18:34.056Z,45.61
2022-07-29T01:21:28.787Z,45.78
2022-07-29T01:24:07.449Z,45.79
2022-07-29T01:26:49.229Z,45.73
2022-07-29T01:29:38.592Z,45.87
2022-07-29T01:32:20.300Z,45.89
2022-07-29T01:35:02.625Z,45.85
2022-07-29T01:37:58.412Z,45.90
2022-07-29T01:40:31.100Z,46.03
2022-07-29T01:43:00.883Z,45.98
2022-07-29T01:45:57.435Z,46.11
2022-07-29T01:48:29.856Z,46.02
2022-07-29T01:51:11.793Z,46.10
2022-07-29T01:54:07.352Z,46.04
2022-07-29T01:56:36.201Z,46.04
2022-07-29T01:59:05.533Z,46.04
2022-07-29T02:01:34.241Z,46.05
2022-07-29T02:04:04.798Z,46.15
2022-07-29T02:06:33.397Z,46.19
2022-07-29T02:09:01.428Z,46.12
2022-07-29T02:11:28.540Z,46.26
2022-07-29T02:13:58.891Z,46.19
2022-07-29T02:16:29.950Z,46.35
2022-07-29T02:18:58.976Z,46.31
2022-07-29T02:21:27.907Z,46.41
2022-07-29T02:23:56.901Z,46.42
2022-07-29T02:26:26.845Z,46.47
2022-07-29T02:28:56.131Z,46.39
2022-07-29T02:31:26.788Z,46.48
2022-07-29T02:33:55.776Z,46.54
2022-07-29T02:36:24.414Z,46.44
2022-07-29T02:38:51.621Z,46.51
2022-07-29T02:41:44.429Z,46.47
2022-07-29T02:44:14.128Z,46.64
2022-07-29T02:46:49.042Z,46.66
2022-07-29T02:49:24.726Z,46.61
2022-07-29T02:51:59.049Z,46.68
2022-07-29T02:55:06.067Z,46.78
2022-07-29T02:57:54.742Z,46.54
2022-07-29T03:00:24.675Z,46.69
2022-07-29T03:02:54.904Z,46.67
2022-07-29T03:05:22.891Z,46.68
2022-07-29T03:07:57.006Z,46.75
2022-07-29T03:10:24.737Z,46.75
2022-07-29T03:12:51.933Z,46.75
2022-07-29T03:15:20.004Z,46.76
2022-07-29T03:17:47.257Z,46.81
2022-07-29T03:20:14.356Z,46.77
2022-07-29T03:22:45.048Z,46.81
2022-07-29T03:25:12.422Z,46.86
2022-07-29T03:27:39.120Z,47.00
2022-07-29T03:30:08.867Z,46.91
2022-07-29T03:32:36.249Z,46.83
2022-07-29T03:35:03.198Z,46.83
2022-07-29T03:37:31.560Z,46.92
2022-07-29T03:39:59.177Z,46.88
2022-07-29T03:42:32.409Z,46.95
2022-07-29T03:45:04.575Z,47.00
2022-07-29T03:47:39.296Z,46.95
2022-07-29T03:50:18.011Z,47.02
2022-07-29T03:52:45.351Z,47.13
2022-07-29T03:55:12.941Z,47.05
2022-07-29T03:57:41.245Z,47.06
2022-07-29T04:00:08.472Z,46.99
2022-07-29T04:02:35.432Z,47.04
2022-07-29T04:05:02.212Z,47.12
2022-07-29T04:07:28.822Z,47.12
2022-07-29T04:09:55.398Z,47.13
2022-07-29T04:12:22.072Z,47.14
2022-07-29T04:14:49.744Z,47.19
2022-07-29T04:17:16.376Z,47.24
2022-07-29T04:19:42.980Z,47.13
2022-07-29T04:22:09.574Z,47.28
2022-07-29T04:24:36.132Z,47.24
2022-07-29T04:27:02.834Z,47.22
2022-07-29T04:29:29.379Z,47.25
2022-07-29T04:31:55.949Z,47.46
2022-07-29T04:34:22.555Z,47.37
2022-07-29T04:36:54.720Z,47.24
2022-07-29T04:39:23.171Z,47.28
2022-07-29T04:41:51.205Z,47.32
2022-07-29T04:44:19.679Z,47.35
2022-07-29T04:46:46.607Z,47.45
2022-07-29T04:49:14.208Z,47.26
2022-07-29T04:51:40.982Z,47.46
2022-07-29T04:54:07.620Z,47.30
2022-07-29T04:56:34.233Z,47.45
2022-07-29T04:59:00.914Z,47.45
2022-07-29T05:01:27.510Z,47.42
2022-07-29T05:03:59.851Z,47.48
2022-07-29T05:06:26.973Z,47.44
2022-07-29T05:08:53.627Z,47.41
2022-07-29T05:11:22.383Z,47.42
2022-07-29T05:13:49.894Z,47.43
2022-07-29T05:16:16.523Z,47.48
2022-07-29T05:18:43.278Z,47.49
2022-07-29T05:21:10.261Z,47.49
2022-07-29T05:23:36.895Z,47.44
2022-07-29T05:26:03.667Z,47.38
2022-07-29T05:28:30.286Z,47.50
2022-07-29T05:30:57.403Z,47.39
2022-07-29T05:33:36.023Z,47.61
2022-07-29T05:36:06.619Z,47.42
2022-07-29T05:38:33.904Z,47.36
2022-07-29T05:41:01.166Z,47.37
2022-07-29T05:43:28.933Z,47.41
2022-07-29T05:45:55.964Z,47.54
2022-07-29T05:48:22.578Z,47.67
2022-07-29T05:50:49.204Z,47.59
2022-07-29T05:53:19.955Z,47.39
2022-07-29T05:55:48.221Z,47.59
2022-07-29T05:58:15.032Z,47.73
2022-07-29T06:00:41.772Z,47.71
2022-07-29T06:03:08.414Z,47.75
2022-07-29T06:05:35.025Z,47.63
2022-07-29T06:08:01.989Z,47.59
2022-07-29T06:10:28.584Z,47.38
2022-07-29T06:12:55.289Z,47.55
2022-07-29T06:15:21.980Z,47.70
2022-07-29T06:17:59.953Z,47.55
2022-07-29T06:20:30.687Z,47.64
2022-07-29T06:22:58.033Z,47.54
2022-07-29T06:25:24.635Z,47.38
2022-07-29T06:27:51.207Z,47.25
2022-07-29T06:30:17.857Z,47.36
2022-07-29T06:32:44.467Z,47.51
2022-07-29T06:35:39.116Z,47.57
2022-07-29T06:37:59.457Z,47.20
2022-07-29T06:40:45.428Z,47.51
2022-07-29T06:43:12.251Z,47.48
2022-07-29T06:45:42.305Z,47.35
2022-07-29T06:48:10.265Z,47.62
2022-07-29T06:50:36.928Z,47.48
2022-07-29T06:53:04.695Z,47.18
2022-07-29T06:55:31.404Z,47.36
2022-07-29T06:57:57.978Z,47.53
2022-07-29T07:00:24.790Z,47.43
2022-07-29T07:02:51.421Z,47.48
2022-07-29T07:05:18.103Z,47.42
2022-07-29T07:07:44.714Z,47.58
2022-07-29T07:10:11.315Z,47.31
2022-07-29T07:12:38.024Z,47.47
2022-07-29T07:15:05.160Z,47.43
2022-07-29T07:17:31.776Z,47.40
2022-07-29T07:19:58.368Z,47.63
2022-07-29T07:22:24.957Z,47.58
2022-07-29T07:24:51.534Z,47.58
2022-07-29T07:27:18.159Z,47.13
2022-07-29T07:29:44.711Z,47.14
2022-07-29T07:32:11.406Z,47.25
2022-07-29T07:34:39.112Z,47.23
2022-07-29T07:37:06.677Z,47.19
2022-07-29T07:39:33.313Z,47.22
2022-07-29T07:42:00.018Z,47.17
2022-07-29T07:44:26.703Z,47.21
2022-07-29T07:46:53.516Z,47.46
2022-07-29T07:49:21.728Z,47.23
2022-07-29T07:51:50.340Z,47.21
2022-07-29T07:54:18.635Z,47.35
2022-07-29T07:56:50.837Z,47.36
2022-07-29T07:59:19.844Z,47.25
2022-07-29T08:01:55.270Z,47.04
2022-07-29T08:04:27.305Z,47.25
2022-07-29T08:06:56.444Z,47.31
2022-07-29T08:09:29.722Z,47.21
2022-07-29T08:11:58.604Z,47.06
2022-07-29T08:14:25.396Z,47.05
2022-07-29T08:16:52.548Z,47.19
2022-07-29T08:19:19.431Z,46.92
2022-07-29T08:21:46.217Z,46.87
2022-07-29T08:24:31.330Z,46.89
2022-07-29T08:26:57.898Z,46.80
2022-07-29T08:29:24.585Z,46.82
2022-07-29T08:31:51.505Z,46.81
2022-07-29T08:34:18.199Z,46.80
2022-07-29T08:36:44.824Z,46.74
2022-07-29T08:39:17.465Z,46.77
2022-07-29T08:41:56.720Z,46.77
2022-07-29T08:44:30.600Z,46.56
2022-07-29T08:46:58.392Z,46.62
2022-07-29T08:49:25.264Z,46.46
2022-07-29T08:51:54.971Z,46.40
2022-07-29T08:54:23.444Z,46.54
2022-07-29T08:56:51.445Z,46.42
2022-07-29T08:59:22.053Z,46.66
2022-07-29T09:01:53.237Z,46.21
2022-07-29T09:04:21.658Z,46.14
2022-07-29T09:06:52.384Z,46.19
2022-07-29T09:09:19.337Z,46.09
2022-07-29T09:11:46.165Z,46.23
2022-07-29T09:14:14.380Z,46.16
2022-07-29T09:17:01.045Z,46.10
2022-07-29T09:19:31.112Z,45.96
2022-07-29T09:22:00.080Z,45.81
2022-07-29T09:24:48.430Z,45.84
2022-07-29T09:27:27.650Z,45.79
2022-07-29T09:29:59.171Z,45.73
2022-07-29T09:32:27.227Z,45.62
2022-07-29T09:35:21.708Z,45.90
2022-07-29T09:37:49.027Z,45.59
2022-07-29T09:40:18.105Z,45.26
2022-07-29T09:42:45.617Z,45.26
2022-07-29T09:45:13.379Z,45.49
2022-07-29T09:47:46.092Z,45.10
2022-07-29T09:50:12.872Z,45.02
2022-07-29T09:52:51.239Z,45.33
2022-07-29T09:55:19.922Z,44.89
2022-07-29T09:57:47.883Z,45.23
2022-07-29T10:00:18.819Z,44.81
2022-07-29T10:02:47.248Z,45.02
2022-07-29T10:05:35.919Z,44.87
2022-07-29T10:08:03.831Z,44.91
2022-07-29T10:10:35.249Z,44.63
2022-07-29T10:13:09.928Z,44.96
2022-07-29T10:15:45.306Z,44.73
2022-07-29T10:18:14.444Z,44.50
2022-07-29T10:20:41.599Z,44.56
2022-07-29T10:23:09.811Z,44.31
2022-07-29T10:25:36.492Z,44.48
2022-07-29T10:28:03.822Z,44.50
2022-07-29T10:30:30.533Z,44.68
2022-07-29T10:33:09.989Z,44.47
2022-07-29T10:35:36.486Z,44.22
2022-07-29T10:38:16.656Z,44.08
2022-07-29T10:41:11.351Z,44.13
2022-07-29T10:43:42.454Z,44.17
2022-07-29T10:46:09.964Z,44.10
2022-07-29T10:49:08.065Z,44.06
2022-07-29T10:51:53.828Z,43.67
2022-07-29T10:54:37.137Z,43.55
2022-07-29T10:57:25.711Z,43.97
2022-07-29T11:00:16.694Z,43.54
2022-07-29T11:02:45.964Z,43.84
2022-07-29T11:05:20.450Z,43.46
2022-07-29T11:08:27.748Z,43.41
2022-07-29T11:11:22.043Z,43.34
2022-07-29T11:13:51.517Z,43.64
2022-07-29T11:16:25.109Z,43.31
2022-07-29T11:19:14.150Z,43.05
2022-07-29T11:21:54.030Z,43.21
2022-07-29T11:24:34.813Z,43.24
2022-07-29T11:27:23.296Z,43.01
2022-07-29T11:29:58.401Z,42.98
2022-07-29T11:32:36.020Z,42.68
2022-07-29T11:35:37.988Z,42.95
2022-07-29T11:38:29.339Z,42.77
2022-07-29T11:41:27.530Z,42.63
2022-07-29T11:43:56.949Z,42.35
2022-07-29T11:49:45.387Z,42.39
2022-07-29T11:52:15.089Z,42.28
2022-07-29T11:54:52.509Z,42.15
2022-07-29T11:57:36.666Z,42.04
2022-07-29T12:00:12.736Z,42.21
2022-07-29T12:02:43.395Z,42.01
2022-07-29T12:05:14.530Z,42.03
2022-07-29T12:07:47.120Z,42.11
2022-07-29T12:10:29.678Z,41.95
2022-07-29T12:12:57.300Z,42.02
2022-07-29T12:15:39.217Z,41.94
2022-07-29T12:18:14.515Z,42.20
2022-07-29T12:20:49.552Z,41.86
2022-07-29T12:23:17.419Z,41.98
2022-07-29T12:25:49.725Z,41.90
2022-07-29T12:28:26.643Z,41.81
2022-07-29T12:30:54.309Z,41.89
2022-07-29T12:33:25.012Z,41.84
2022-07-29T12:36:17.440Z,41.84
2022-07-29T12:38:41.740Z,41.80
2022-07-29T12:41:08.636Z,41.82
2022-07-29T12:43:35.402Z,41.84
2022-07-29T12:46:15.337Z,41.64
2022-07-29T12:48:44.251Z,41.54
2022-07-29T12:51:13.277Z,41.69
2022-07-29T12:53:40.262Z,41.63
2022-07-29T12:56:26.693Z,41.53
2022-07-29T12:58:54.436Z,41.31
2022-07-29T13:01:22.099Z,41.54
2022-07-29T13:03:57.201Z,41.47
2022-07-29T13:06:41.222Z,41.49
2022-07-29T13:09:19.732Z,41.42
2022-07-29T13:11:49.225Z,41.53
2022-07-29T13:14:37.335Z,41.33
2022-07-29T13:17:10.648Z,41.32
2022-07-29T13:19:37.338Z,41.37
2022-07-29T13:22:05.174Z,41.25
2022-07-29T13:24:31.850Z,41.25
2022-07-29T13:26:58.531Z,41.15
2022-07-29T13:29:28.594Z,41.17
2022-07-29T13:31:58.395Z,41.08
2022-07-29T13:34:25.477Z,41.11
2022-07-29T13:36:52.153Z,41.14
2022-07-29T13:39:18.784Z,41.11
2022-07-29T13:41:45.414Z,41.06
2022-07-29T13:44:12.017Z,40.89
2022-07-29T13:46:40.144Z,40.95
2022-07-29T13:49:06.903Z,41.16
2022-07-29T13:51:33.801Z,41.06
2022-07-29T13:54:00.462Z,40.98
2022-07-29T13:56:27.276Z,41.09
2022-07-29T13:58:54.029Z,40.90
2022-07-29T14:01:20.726Z,40.70
2022-07-29T14:03:47.504Z,40.83
2022-07-29T14:06:14.557Z,40.87
2022-07-29T14:08:42.189Z,40.84
2022-07-29T14:11:08.777Z,40.59
2022-07-29T14:13:35.488Z,40.76
2022-07-29T14:16:02.355Z,40.67
2022-07-29T14:18:29.059Z,40.66
2022-07-29T14:20:55.869Z,40.61
2022-07-29T14:23:22.528Z,40.75
2022-07-29T14:25:49.825Z,40.58
2022-07-29T14:28:16.707Z,40.45
2022-07-29T14:30:43.476Z,40.41
2022-07-29T14:33:11.065Z,40.40
2022-07-29T14:35:37.959Z,40.65
2022-07-29T14:38:04.848Z,40.56
2022-07-29T14:40:31.611Z,40.42
2022-07-29T14:42:58.418Z,40.33
2022-07-29T14:45:25.214Z,40.67
2022-07-29T14:47:51.901Z,40.42
2022-07-29T14:50:31.497Z,40.46
2022-07-29T14:52:59.136Z,40.50
2022-07-29T14:55:25.952Z,40.37
2022-07-29T14:57:56.389Z,40.34
2022-07-29T15:00:27.977Z,40.13
2022-07-29T15:03:02.715Z,40.28
2022-07-29T15:05:31.079Z,40.18
2022-07-29T15:07:58.241Z,40.01
2022-07-29T15:10:25.379Z,40.22
2022-07-29T15:12:54.330Z,40.28
2022-07-29T15:15:21.045Z,40.12
2022-07-29T15:17:48.221Z,40.21
2022-07-29T15:20:14.991Z,40.32
2022-07-29T15:22:44.352Z,40.26
2022-07-29T15:25:11.089Z,40.27
2022-07-29T15:27:37.882Z,40.17
2022-07-29T15:30:05.283Z,40.23
2022-07-29T15:32:32.022Z,40.07
2022-07-29T15:34:58.795Z,40.23
2022-07-29T15:37:25.887Z,40.08
2022-07-29T15:39:55.047Z,40.13
2022-07-29T15:42:24.973Z,40.12
2022-07-29T15:44:51.737Z,40.09
2022-07-29T15:47:18.488Z,40.07
2022-07-29T15:49:47.689Z,40.12
2022-07-29T15:52:19.069Z,40.12
2022-07-29T15:54:51.800Z,40.11
2022-07-29T15:57:18.607Z,40.04
2022-07-29T15:59:45.327Z,40.13
2022-07-29T16:02:12.048Z,40.21
2022-07-29T16:04:39.052Z,40.17
2022-07-29T16:07:06.011Z,40.06
2022-07-29T16:09:32.717Z,39.97
2022-07-29T16:11:59.424Z,40.11
2022-07-29T16:14:28.159Z,40.08
2022-07-29T16:16:56.218Z,40.06
2022-07-29T16:19:23.293Z,40.19
2022-07-29T16:21:50.018Z,40.06
2022-07-29T16:24:16.672Z,40.19
2022-07-29T16:26:43.352Z,40.08
2022-07-29T16:29:10.037Z,40.17
2022-07-29T16:31:36.747Z,40.01
2022-07-29T16:34:03.400Z,39.79
2022-07-29T16:36:30.115Z,40.00
2022-07-29T16:38:56.823Z,40.01
2022-07-29T16:41:23.561Z,40.07
2022-07-29T16:43:50.330Z,40.04
2022-07-29T16:46:19.032Z,40.13
2022-07-29T16:48:46.963Z,40.12
2022-07-29T16:51:14.533Z,40.16
2022-07-29T16:53:41.692Z,40.07
2022-07-29T16:56:12.684Z,40.06
2022-07-29T16:58:43.525Z,40.18
2022-07-29T17:01:10.712Z,40.20
2022-07-29T17:04:00.148Z,40.24
2022-07-29T17:06:29.403Z,40.22
2022-07-29T17:08:57.111Z,40.14
2022-07-29T17:11:51.588Z,40.17
2022-07-29T17:14:11.004Z,40.26
2022-07-29T17:16:37.738Z,40.21
2022-07-29T17:19:04.511Z,40.07
2022-07-29T17:21:31.138Z,40.11
2022-07-29T17:23:59.331Z,40.15
2022-07-29T17:26:28.103Z,40.35
2022-07-29T17:28:55.453Z,40.28
2022-07-29T17:31:22.268Z,40.19
2022-07-29T17:33:48.968Z,40.21
2022-07-29T17:36:24.552Z,40.24
2022-07-29T17:38:52.952Z,40.38
2022-07-29T17:41:20.357Z,40.25
2022-07-29T17:43:47.305Z,40.31
2022-07-29T17:46:14.489Z,40.22
2022-07-29T17:48:41.644Z,40.25
2022-07-29T17:51:09.166Z,40.24
2022-07-29T17:53:36.278Z,40.40
2022-07-29T17:56:04.525Z,40.47
2022-07-29T17:58:32.631Z,40.47
2022-07-29T18:00:59.515Z,40.20
2022-07-29T18:03:26.967Z,40.23
2022-07-29T18:05:53.860Z,40.50
2022-07-29T18:08:20.685Z,40.40
2022-07-29T18:10:47.760Z,40.45
2022-07-29T18:13:14.577Z,40.54
2022-07-29T18:15:41.559Z,40.76
2022-07-29T18:18:08.912Z,40.43
2022-07-29T18:20:35.531Z,40.64
2022-07-29T18:23:02.447Z,40.78
2022-07-29T18:25:29.573Z,40.90
2022-07-29T18:28:00.300Z,40.90
2022-07-29T18:30:27.924Z,40.71
2022-07-29T18:33:19.774Z,40.92
2022-07-29T18:35:41.309Z,41.03
2022-07-29T18:38:07.949Z,41.23
2022-07-29T18:40:34.583Z,41.45
2022-07-29T18:43:01.361Z,41.33
2022-07-29T18:45:28.724Z,41.47
2022-07-29T18:47:56.211Z,41.24
2022-07-29T18:50:28.939Z,41.41
2022-07-29T18:52:58.635Z,41.64
2022-07-29T18:55:26.327Z,41.83
2022-07-29T18:57:55.931Z,42.13
2022-07-29T19:00:24.179Z,41.84
2022-07-29T19:02:51.052Z,42.32
2022-07-29T19:05:18.257Z,42.22
2022-07-29T19:07:44.874Z,42.44
2022-07-29T19:10:12.316Z,42.28
2022-07-29T19:12:39.253Z,42.38
2022-07-29T19:15:07.634Z,42.37
2022-07-29T19:17:34.349Z,42.63
2022-07-29T19:20:01.090Z,42.64
2022-07-29T19:22:27.940Z,42.62
2022-07-29T19:24:54.622Z,42.63
2022-07-29T19:27:21.295Z,42.56
2022-07-29T19:29:48.031Z,43.11
2022-07-29T19:32:24.786Z,42.80
2022-07-29T19:35:11.057Z,42.86
2022-07-29T19:37:37.806Z,42.95
2022-07-29T19:40:05.796Z,43.29
2022-07-29T19:42:32.540Z,42.98
2022-07-29T19:44:59.230Z,43.18
2022-07-29T19:47:26.374Z,43.47
2022-07-29T19:49:53.033Z,43.09
2022-07-29T19:52:19.720Z,43.44
2022-07-29T19:54:46.422Z,43.50
2022-07-29T19:57:13.101Z,43.19
2022-07-29T19:59:41.276Z,43.25
2022-07-29T20:02:10.954Z,43.60
2022-07-29T20:04:38.581Z,43.81
2022-07-29T20:07:06.473Z,43.53
2022-07-29T20:09:33.265Z,43.52
2022-07-29T20:11:59.904Z,43.85
2022-07-29T20:14:26.713Z,43.69
2022-07-29T20:16:54.486Z,43.54
2022-07-29T20:19:21.348Z,43.80
2022-07-29T20:21:48.026Z,43.93
2022-07-29T20:24:14.716Z,43.73
2022-07-29T20:26:41.569Z,44.08
2022-07-29T20:29:08.404Z,43.99
2022-07-29T20:31:35.140Z,43.87
2022-07-29T20:34:02.064Z,43.90
2022-07-29T20:36:29.053Z,44.01
2022-07-29T20:38:56.908Z,44.18
2022-07-29T20:41:23.586Z,44.39
2022-07-29T20:43:50.305Z,44.36
2022-07-29T20:46:18.042Z,44.72
2022-07-29T20:48:45.776Z,44.81
2022-07-29T20:51:13.685Z,44.76
2022-07-29T20:53:41.404Z,44.81
2022-07-29T20:56:08.259Z,44.77
2022-07-29T20:58:36.297Z,44.88
2022-07-29T21:01:03.333Z,44.73
2022-07-29T21:03:30.112Z,44.75
2022-07-29T21:05:57.000Z,44.75
2022-07-29T21:08:23.655Z,44.85
2022-07-29T21:10:50.412Z,44.87
2022-07-29T21:13:17.183Z,44.55
2022-07-29T21:15:46.507Z,44.57
2022-07-29T21:18:27.346Z,44.92
2022-07-29T21:20:55.110Z,44.72
2022-07-29T21:23:21.935Z,45.02
2022-07-29T21:25:49.060Z,45.09
2022-07-29T21:28:27.766Z,45.09
2022-07-29T21:30:59.875Z,45.16
2022-07-29T21:33:28.131Z,45.02
2022-07-29T21:38:42.008Z,45.38
2022-07-29T21:41:10.892Z,45.13
2022-07-29T21:43:37.604Z,45.24
2022-07-29T21:46:09.146Z,45.55
2022-07-29T21:48:35.905Z,45.37
2022-07-29T21:51:02.545Z,45.46
2022-07-29T21:53:29.257Z,45.29
2022-07-29T21:55:57.466Z,45.49
2022-07-29T21:58:24.818Z,45.53
2022-07-29T22:00:52.320Z,45.71
2022-07-29T22:03:18.932Z,45.37
2022-07-29T22:05:45.873Z,45.47
2022-07-29T22:08:13.023Z,45.49
2022-07-29T22:10:39.617Z,45.46
2022-07-29T22:13:06.272Z,45.58
2022-07-29T22:15:33.037Z,45.66
2022-07-29T22:18:00.825Z,45.66
2022-07-29T22:20:27.626Z,45.71
2022-07-29T22:22:54.308Z,45.63
2022-07-29T22:25:21.094Z,45.84
2022-07-29T22:27:48.136Z,45.77
2022-07-29T22:30:15.115Z,46.05
2022-07-29T22:32:42.043Z,45.93
2022-07-29T22:35:08.948Z,45.78
2022-07-29T22:37:35.618Z,45.94
2022-07-29T22:40:03.568Z,45.89
2022-07-29T22:44:57.018Z,46.00
2022-07-29T22:47:45.855Z,46.17
2022-07-29T22:50:10.340Z,46.17
2022-07-29T22:52:37.007Z,46.09
2022-07-29T22:55:05.031Z,46.32
2022-07-29T22:57:31.683Z,46.30
2022-07-29T22:59:58.348Z,46.27
2022-07-29T23:02:24.942Z,46.37
2022-07-29T23:04:51.491Z,46.41
2022-07-29T23:07:18.341Z,46.40
2022-07-29T23:09:44.908Z,46.57
2022-07-29T23:12:11.724Z,46.63
2022-07-29T23:14:38.293Z,46.42
2022-07-29T23:17:05.428Z,46.55
2022-07-29T23:19:32.332Z,46.67
2022-07-29T23:21:58.961Z,46.59
2022-07-29T23:24:25.574Z,46.77
2022-07-29T23:26:52.137Z,46.63
2022-07-29T23:29:18.990Z,46.82
2022-07-29T23:31:47.925Z,46.71
2022-07-29T23:34:15.090Z,46.84
2022-07-29T23:36:42.466Z,46.75
2022-07-29T23:39:11.374Z,46.83
2022-07-29T23:41:38.432Z,47.07
2022-07-29T23:44:05.340Z,46.94
2022-07-29T23:46:32.101Z,47.21
2022-07-29T23:48:58.779Z,46.96
2022-07-29T23:51:25.398Z,47.12
2022-07-29T23:53:53.817Z,47.01
2022-07-29T23:56:21.311Z,47.13
2022-07-29T23:58:47.988Z,47.17
